Bloomfield, Nebraska
Current Conditions -  °F | °C
As of 9:35 AM on Saturday 22 Nov 2014 (Local Time) from KYKN Reporting Station
Clear Clear  
Wind Chill: 29°   Ceiling: Unl
Heat Index: 36°   Visibility: 9mi
Dew Point: 30°   Wind: 8mph
Humidity: 81%   Direction: 180°S
Pressure: 29.73"   Gusts: NA
Location:  42.6°N, 97.65°W
Report Text: KYKN 221535Z AUTO 18007KT 9SM CLR 02/M01 A2973 RMK AO1
Loading
Personal Weather Stations






























Interactive Weather Map New forecast layout! Learn more

10-Day Weather Forecast

Advertisements
Track Severe Weather on mobile